Nord Nanami — 3EWR2 — position and weather

sailwx.info

Track history (hours):
 
Tides and Currents Weather Stations Pressure Air Temp Water Temp Dewpoint Dewpoint Depression Visibility Wind Speed Wind Dir Waves Ship Positions

Nord Nanami

Last reported at 2016-Sep-19 03:32 UTC. Time now 2016-Sep-29 03:24 UTC.
Position S 32°60' W 071°55'.
Warning: this ship's position is 9 days out of date.

Length 180 m; draft 10.3 m.

Type: Cargo ship. MMSI: 373694000.

Date/timePositionNaut miles runAvg speedWind from/ knotsBaromVisibWave heightAir tempDewpointWater temp
2016-Sep-19 03:32S 32°60' W 071°55'1312.9
2016-Sep-19 02:33S 32°48' W 072°00'8712.4
2016-Sep-18 19:33S 31°25' W 072°32'  
2016-Sep-10 18:29N 09°07' W 079°45'7 7.1
2016-Sep-10 17:33N 09°11' W 079°51'7 6.7
2016-Sep-10 16:33N 09°16' W 079°55'1 0.7
2016-Sep-10 15:33N 09°16' W 079°55'0 0.4
2016-Sep-10 14:33N 09°17' W 079°55'2 1.7
2016-Sep-10 13:33N 09°19' W 079°55'4 4.3
2016-Sep-10 12:33N 09°23' W 079°55'5 5.5
2016-Sep-10 11:34N 09°28' W 079°57'0 0.1
2016-Sep-10 10:22N 09°28' W 079°57'0 0.0
2016-Sep-10 09:25N 09°28' W 079°57'0 0.0
2016-Sep-10 08:21N 09°28' W 079°57'0 0.0
2016-Sep-10 07:18N 09°28' W 079°57'0 0.0
2016-Sep-10 06:31N 09°28' W 079°57'0 0.0
2016-Sep-10 04:25N 09°28' W 079°57'0 0.0
2016-Sep-10 03:22N 09°28' W 079°57'0 0.0
2016-Sep-10 02:33N 09°28' W 079°57'0 0.0
2016-Sep-10 01:30N 09°28' W 079°57'0 0.0
2016-Sep-10 00:31N 09°28' W 079°57'0 0.0
2016-Sep-09 23:25N 09°28' W 079°57'0 0.0
2016-Sep-09 22:25N 09°28' W 079°57'0 0.0
2016-Sep-09 21:31N 09°28' W 079°57'0 0.0
2016-Sep-09 20:33N 09°28' W 079°57'0 0.0
2016-Sep-09 19:31N 09°28' W 079°57'0 0.0
2016-Sep-09 18:33N 09°28' W 079°57'0 0.0
2016-Sep-09 17:22N 09°28' W 079°57'0 0.1
2016-Sep-09 16:25N 09°28' W 079°57'0 0.0
2016-Sep-09 15:31N 09°28' W 079°57'0 0.0
2016-Sep-09 14:30N 09°28' W 079°57'0 0.0
2016-Sep-09 13:28N 09°28' W 079°57'0 0.0
2016-Sep-09 12:30N 09°28' W 079°57'0 0.0
2016-Sep-09 11:30N 09°28' W 079°57'0 0.0
2016-Sep-09 10:28N 09°28' W 079°57'0 0.0
2016-Sep-09 09:30N 09°28' W 079°57'0 0.0
2016-Sep-09 08:28N 09°28' W 079°57'0 0.0
2016-Sep-09 07:28N 09°28' W 079°57'0 0.0
2016-Sep-09 06:28N 09°28' W 079°57'0 0.0
2016-Sep-09 05:31N 09°28' W 079°57'0 0.0
2016-Sep-09 04:25N 09°28' W 079°57'  
Track history (hours):
 
Tides and Currents Weather Stations Pressure Air Temp Water Temp Dewpoint Dewpoint Depression Visibility Wind Speed Wind Dir Waves Ship Positions

Nord Nanami

Last reported at 2016-Sep-19 03:32 UTC. Time now 2016-Sep-29 03:24 UTC.
Position S 32°60' W 071°55'.
Warning: this ship's position is 9 days out of date.

Length 180 m; draft 10.3 m.

Type: Cargo ship. MMSI: 373694000.

Date/timePositionNaut miles runAvg speedWind from/ knotsBaromVisibWave heightAir tempDewpointWater temp
2016-Sep-19 03:32S 32°60' W 071°55'1312.9
2016-Sep-19 02:33S 32°48' W 072°00'8712.4
2016-Sep-18 19:33S 31°25' W 072°32'  
2016-Sep-10 18:29N 09°07' W 079°45'7 7.1
2016-Sep-10 17:33N 09°11' W 079°51'7 6.7
2016-Sep-10 16:33N 09°16' W 079°55'1 0.7
2016-Sep-10 15:33N 09°16' W 079°55'0 0.4
2016-Sep-10 14:33N 09°17' W 079°55'2 1.7
2016-Sep-10 13:33N 09°19' W 079°55'4 4.3
2016-Sep-10 12:33N 09°23' W 079°55'5 5.5
2016-Sep-10 11:34N 09°28' W 079°57'0 0.1
2016-Sep-10 10:22N 09°28' W 079°57'0 0.0
2016-Sep-10 09:25N 09°28' W 079°57'0 0.0
2016-Sep-10 08:21N 09°28' W 079°57'0 0.0
2016-Sep-10 07:18N 09°28' W 079°57'0 0.0
2016-Sep-10 06:31N 09°28' W 079°57'0 0.0
2016-Sep-10 04:25N 09°28' W 079°57'0 0.0
2016-Sep-10 03:22N 09°28' W 079°57'0 0.0
2016-Sep-10 02:33N 09°28' W 079°57'0 0.0
2016-Sep-10 01:30N 09°28' W 079°57'0 0.0
2016-Sep-10 00:31N 09°28' W 079°57'0 0.0
2016-Sep-09 23:25N 09°28' W 079°57'0 0.0
2016-Sep-09 22:25N 09°28' W 079°57'0 0.0
2016-Sep-09 21:31N 09°28' W 079°57'0 0.0
2016-Sep-09 20:33N 09°28' W 079°57'0 0.0
2016-Sep-09 19:31N 09°28' W 079°57'0 0.0
2016-Sep-09 18:33N 09°28' W 079°57'0 0.0
2016-Sep-09 17:22N 09°28' W 079°57'0 0.1
2016-Sep-09 16:25N 09°28' W 079°57'0 0.0
2016-Sep-09 15:31N 09°28' W 079°57'0 0.0
2016-Sep-09 14:30N 09°28' W 079°57'0 0.0
2016-Sep-09 13:28N 09°28' W 079°57'0 0.0
2016-Sep-09 12:30N 09°28' W 079°57'0 0.0
2016-Sep-09 11:30N 09°28' W 079°57'0 0.0
2016-Sep-09 10:28N 09°28' W 079°57'0 0.0
2016-Sep-09 09:30N 09°28' W 079°57'0 0.0
2016-Sep-09 08:28N 09°28' W 079°57'0 0.0
2016-Sep-09 07:28N 09°28' W 079°57'0 0.0
2016-Sep-09 06:28N 09°28' W 079°57'0 0.0
2016-Sep-09 05:31N 09°28' W 079°57'0 0.0
2016-Sep-09 04:25N 09°28' W 079°57'  

Dump ship's entire track history